Bahamas Express — HP5898 — position and weather

sailwx.info

Track history (hours):
 
Tides and Currents Weather Stations Pressure Air Temp Water Temp Dewpoint Dewpoint Depression Visibility Wind Speed Wind Dir Waves Ship Positions

Bahamas Express

Last reported at 2018-Jul-22 01:00 UTC. Time now 2018-Jul-22 01:07 UTC.
Position N 26°03' W 079°55'.

Length 52 m; draft 2 m.

Type: Cargo ship. MMSI: 371923000.

Date/timePositionNaut miles runAvg speedWind from/ knotsBaromVisibWave heightAir tempDewpointWater temp
2018-Jul-22 01:00N 26°03' W 079°55'4 8.6
2018-Jul-22 00:30N 26°04' W 080°00'4 8.8
2018-Jul-22 00:00N 26°05' W 080°05'3 5.6
2018-Jul-21 23:30N 26°04' W 080°07'0 0.8
2018-Jul-21 22:56N 26°04' W 080°08'0 0.0
2018-Jul-21 22:28N 26°04' W 080°08'0 0.0
2018-Jul-21 21:58N 26°04' W 080°08'0 0.0
2018-Jul-21 21:20N 26°04' W 080°08'0 0.1
2018-Jul-21 20:50N 26°04' W 080°08'0 0.0
2018-Jul-21 20:19N 26°04' W 080°08'0 0.0
2018-Jul-21 19:47N 26°04' W 080°08'0 0.0
2018-Jul-21 19:24N 26°04' W 080°08'0 0.0
2018-Jul-21 18:51N 26°04' W 080°08'0 0.0
2018-Jul-21 18:24N 26°04' W 080°08'0 0.0
2018-Jul-21 17:53N 26°04' W 080°08'0 0.0
2018-Jul-21 17:26N 26°04' W 080°08'0 0.0
2018-Jul-21 17:00N 26°04' W 080°08'0 0.0
2018-Jul-21 16:30N 26°04' W 080°08'0 0.0
2018-Jul-21 15:58N 26°04' W 080°08'0 0.0
2018-Jul-21 15:28N 26°04' W 080°08'0 0.0
2018-Jul-21 14:58N 26°04' W 080°08'0 0.0
2018-Jul-21 14:25N 26°04' W 080°08'0 0.0
2018-Jul-21 14:00N 26°04' W 080°08'0 0.0
2018-Jul-21 13:30N 26°04' W 080°08'0 0.0
2018-Jul-21 13:00N 26°04' W 080°08'1 1.7
2018-Jul-21 12:30N 26°04' W 080°07'3 5.8
2018-Jul-21 12:00N 26°05' W 080°04'510.0
2018-Jul-21 11:29N 26°03' W 079°59'5 9.5
2018-Jul-21 11:00N 26°02' W 079°54'5 9.3
2018-Jul-21 10:30N 26°00' W 079°49'9 0.3
2018-Jul-20 05:03N 26°04' W 079°40'110.2
2018-Jul-20 04:59N 26°04' W 079°41'510.2
2018-Jul-20 04:30N 26°02' W 079°46'5 9.7
2018-Jul-20 04:00N 26°01' W 079°51'4 7.8
2018-Jul-20 03:30N 26°01' W 079°56'4 7.1
2018-Jul-20 03:00N 26°03' W 079°59'4 7.1
2018-Jul-20 02:30N 26°04' W 080°03'4 7.4
2018-Jul-20 02:00N 26°06' W 080°07'2 4.0
2018-Jul-20 01:30N 26°04' W 080°08'0 0.4
2018-Jul-20 01:00N 26°04' W 080°08'0 0.0
2018-Jul-20 00:30N 26°04' W 080°08'0 0.0
2018-Jul-20 00:00N 26°04' W 080°08'0 0.0
2018-Jul-19 23:29N 26°04' W 080°08'0 0.0
2018-Jul-19 23:00N 26°04' W 080°08'0 0.0
2018-Jul-19 22:30N 26°04' W 080°08'0 0.0
2018-Jul-19 22:00N 26°04' W 080°08'1 2.7
2018-Jul-19 21:30N 26°05' W 080°07'4 7.4
2018-Jul-19 21:00N 26°05' W 080°03'510.6
2018-Jul-19 20:30N 26°03' W 079°57'610.9
2018-Jul-19 19:59N 26°01' W 079°51'510.9
2018-Jul-19 19:30N 25°59' W 079°46'510.5
2018-Jul-19 19:00N 25°58' W 079°40'7 0.2
2018-Jul-17 20:15N 26°05' W 079°39'2 9.6
2018-Jul-17 20:00N 26°05' W 079°42'5 9.5
2018-Jul-17 19:30N 26°05' W 079°47'5 9.5
2018-Jul-17 19:00N 26°04' W 079°52'5 9.4
2018-Jul-17 18:31N 26°04' W 079°57'4 8.6
2018-Jul-17 18:00N 26°04' W 080°02'4 8.6
2018-Jul-17 17:30N 26°06' W 080°07'2 4.1
2018-Jul-17 17:00N 26°04' W 080°08'0 0.0
2018-Jul-17 16:30N 26°04' W 080°08'0 0.0
2018-Jul-17 15:59N 26°04' W 080°08'0 0.0
2018-Jul-17 15:29N 26°04' W 080°08'0 0.0
2018-Jul-17 15:00N 26°04' W 080°08'0 0.0
2018-Jul-17 14:28N 26°04' W 080°08'0 0.0
2018-Jul-17 13:59N 26°04' W 080°08'0 0.0
2018-Jul-17 13:30N 26°04' W 080°08'0 0.0
2018-Jul-17 13:00N 26°04' W 080°08'0 0.0
2018-Jul-17 12:30N 26°04' W 080°08'0 0.0
2018-Jul-17 11:59N 26°04' W 080°08'0 0.0
2018-Jul-17 11:30N 26°04' W 080°08'0 0.2
2018-Jul-17 11:00N 26°04' W 080°08'3 5.9
2018-Jul-17 10:30N 26°06' W 080°05'5 9.8
2018-Jul-17 10:00N 26°04' W 080°00'5 9.7
2018-Jul-17 09:30N 26°02' W 079°55'5 9.2
2018-Jul-17 09:00N 25°60' W 079°51'5 9.1
2018-Jul-17 08:30N 25°58' W 079°46'5 9.0
2018-Jul-17 08:00N 25°57' W 079°41'5 0.2
2018-Jul-15 23:46N 26°00' W 079°45'2 8.0
2018-Jul-15 23:30N 26°01' W 079°47'4 7.6
2018-Jul-15 23:00N 26°02' W 079°51'4 8.7
2018-Jul-15 22:30N 26°03' W 079°56'4 8.7
2018-Jul-15 22:00N 26°04' W 080°01'5 9.8
2018-Jul-15 21:30N 26°06' W 080°06'3 5.0
2018-Jul-15 21:00N 26°04' W 080°08'0 0.0
2018-Jul-15 20:30N 26°04' W 080°08'0 0.0
2018-Jul-15 20:00N 26°04' W 080°08'0 0.0
2018-Jul-15 19:30N 26°04' W 080°08'0 0.0
2018-Jul-15 19:00N 26°04' W 080°08'0 0.0
2018-Jul-15 18:30N 26°04' W 080°08'0 0.0
2018-Jul-15 18:00N 26°04' W 080°08'0 0.0
2018-Jul-15 17:30N 26°04' W 080°08'0 0.0
2018-Jul-15 16:59N 26°04' W 080°08'0 0.0
2018-Jul-15 16:30N 26°04' W 080°08'0 0.0
2018-Jul-15 16:00N 26°04' W 080°08'0 0.0
2018-Jul-15 15:30N 26°04' W 080°08'0 0.0
2018-Jul-15 15:00N 26°04' W 080°08'0 0.0
2018-Jul-15 14:30N 26°04' W 080°08'0 0.0
2018-Jul-15 14:00N 26°04' W 080°08'0 0.0
2018-Jul-15 13:30N 26°04' W 080°08'0 0.0
2018-Jul-15 13:00N 26°04' W 080°08'0 0.0
2018-Jul-15 12:29N 26°04' W 080°08'0 0.0
2018-Jul-15 12:00N 26°04' W 080°08'0 0.1
2018-Jul-15 11:30N 26°04' W 080°08'3 5.9
2018-Jul-15 11:00N 26°06' W 080°05'5 9.3
2018-Jul-15 10:30N 26°03' W 080°01'4 7.6
2018-Jul-15 10:00N 26°02' W 079°57'4 7.4
2018-Jul-15 09:30N 25°60' W 079°53'4 7.6
2018-Jul-15 08:59N 25°58' W 079°50'4 7.5
2018-Jul-15 08:30N 25°56' W 079°46'4 7.5
2018-Jul-15 07:59N 25°54' W 079°43'8 0.2
2018-Jul-13 05:28N 26°01' W 079°40'4 9.3
2018-Jul-13 05:00N 26°01' W 079°45'5 9.3
2018-Jul-13 04:30N 26°01' W 079°50'4 8.8
2018-Jul-13 04:00N 26°01' W 079°54'4 8.7
2018-Jul-13 03:30N 26°02' W 079°59'5 9.3
2018-Jul-13 03:00N 26°05' W 080°04'3 5.8
2018-Jul-13 02:30N 26°05' W 080°07'1 2.7
2018-Jul-13 02:00N 26°04' W 080°08'0 0.0
2018-Jul-13 01:30N 26°04' W 080°08'0 0.0
2018-Jul-13 01:00N 26°04' W 080°08'0 0.0
2018-Jul-13 00:30N 26°04' W 080°08'0 0.0
2018-Jul-13 00:00N 26°04' W 080°08'0 0.0
2018-Jul-12 23:30N 26°04' W 080°08'0 0.0
2018-Jul-12 23:00N 26°04' W 080°08'0 0.0
2018-Jul-12 22:31N 26°04' W 080°08'0 0.0
2018-Jul-12 22:00N 26°04' W 080°08'0 0.0
2018-Jul-12 21:30N 26°04' W 080°08'0 0.0
2018-Jul-12 21:00N 26°04' W 080°08'0 0.0
2018-Jul-12 20:30N 26°04' W 080°08'0 0.0
2018-Jul-12 20:00N 26°04' W 080°08'0 0.0
2018-Jul-12 19:30N 26°04' W 080°08'0 0.0
2018-Jul-12 19:00N 26°04' W 080°08'0 0.0
2018-Jul-12 18:30N 26°04' W 080°08'1 1.9
2018-Jul-12 18:00N 26°04' W 080°07'3 5.8
2018-Jul-12 17:30N 26°05' W 080°04'510.6
2018-Jul-12 17:01N 26°03' W 079°58'510.8
2018-Jul-12 16:31N 26°01' W 079°53'611.5
2018-Jul-12 16:00N 25°58' W 079°47'510.6
2018-Jul-12 15:30N 25°56' W 079°42'  
Track history (hours):
 
Tides and Currents Weather Stations Pressure Air Temp Water Temp Dewpoint Dewpoint Depression Visibility Wind Speed Wind Dir Waves Ship Positions

Bahamas Express

Last reported at 2018-Jul-22 01:00 UTC. Time now 2018-Jul-22 01:07 UTC.
Position N 26°03' W 079°55'.

Length 52 m; draft 2 m.

Type: Cargo ship. MMSI: 371923000.

Date/timePositionNaut miles runAvg speedWind from/ knotsBaromVisibWave heightAir tempDewpointWater temp
2018-Jul-22 01:00N 26°03' W 079°55'4 8.6
2018-Jul-22 00:30N 26°04' W 080°00'4 8.8
2018-Jul-22 00:00N 26°05' W 080°05'3 5.6
2018-Jul-21 23:30N 26°04' W 080°07'0 0.8
2018-Jul-21 22:56N 26°04' W 080°08'0 0.0
2018-Jul-21 22:28N 26°04' W 080°08'0 0.0
2018-Jul-21 21:58N 26°04' W 080°08'0 0.0
2018-Jul-21 21:20N 26°04' W 080°08'0 0.1
2018-Jul-21 20:50N 26°04' W 080°08'0 0.0
2018-Jul-21 20:19N 26°04' W 080°08'0 0.0
2018-Jul-21 19:47N 26°04' W 080°08'0 0.0
2018-Jul-21 19:24N 26°04' W 080°08'0 0.0
2018-Jul-21 18:51N 26°04' W 080°08'0 0.0
2018-Jul-21 18:24N 26°04' W 080°08'0 0.0
2018-Jul-21 17:53N 26°04' W 080°08'0 0.0
2018-Jul-21 17:26N 26°04' W 080°08'0 0.0
2018-Jul-21 17:00N 26°04' W 080°08'0 0.0
2018-Jul-21 16:30N 26°04' W 080°08'0 0.0
2018-Jul-21 15:58N 26°04' W 080°08'0 0.0
2018-Jul-21 15:28N 26°04' W 080°08'0 0.0
2018-Jul-21 14:58N 26°04' W 080°08'0 0.0
2018-Jul-21 14:25N 26°04' W 080°08'0 0.0
2018-Jul-21 14:00N 26°04' W 080°08'0 0.0
2018-Jul-21 13:30N 26°04' W 080°08'0 0.0
2018-Jul-21 13:00N 26°04' W 080°08'1 1.7
2018-Jul-21 12:30N 26°04' W 080°07'3 5.8
2018-Jul-21 12:00N 26°05' W 080°04'510.0
2018-Jul-21 11:29N 26°03' W 079°59'5 9.5
2018-Jul-21 11:00N 26°02' W 079°54'5 9.3
2018-Jul-21 10:30N 26°00' W 079°49'9 0.3
2018-Jul-20 05:03N 26°04' W 079°40'110.2
2018-Jul-20 04:59N 26°04' W 079°41'510.2
2018-Jul-20 04:30N 26°02' W 079°46'5 9.7
2018-Jul-20 04:00N 26°01' W 079°51'4 7.8
2018-Jul-20 03:30N 26°01' W 079°56'4 7.1
2018-Jul-20 03:00N 26°03' W 079°59'4 7.1
2018-Jul-20 02:30N 26°04' W 080°03'4 7.4
2018-Jul-20 02:00N 26°06' W 080°07'2 4.0
2018-Jul-20 01:30N 26°04' W 080°08'0 0.4
2018-Jul-20 01:00N 26°04' W 080°08'0 0.0
2018-Jul-20 00:30N 26°04' W 080°08'0 0.0
2018-Jul-20 00:00N 26°04' W 080°08'0 0.0
2018-Jul-19 23:29N 26°04' W 080°08'0 0.0
2018-Jul-19 23:00N 26°04' W 080°08'0 0.0
2018-Jul-19 22:30N 26°04' W 080°08'0 0.0
2018-Jul-19 22:00N 26°04' W 080°08'1 2.7
2018-Jul-19 21:30N 26°05' W 080°07'4 7.4
2018-Jul-19 21:00N 26°05' W 080°03'510.6
2018-Jul-19 20:30N 26°03' W 079°57'610.9
2018-Jul-19 19:59N 26°01' W 079°51'510.9
2018-Jul-19 19:30N 25°59' W 079°46'510.5
2018-Jul-19 19:00N 25°58' W 079°40'7 0.2
2018-Jul-17 20:15N 26°05' W 079°39'2 9.6
2018-Jul-17 20:00N 26°05' W 079°42'5 9.5
2018-Jul-17 19:30N 26°05' W 079°47'5 9.5
2018-Jul-17 19:00N 26°04' W 079°52'5 9.4
2018-Jul-17 18:31N 26°04' W 079°57'4 8.6
2018-Jul-17 18:00N 26°04' W 080°02'4 8.6
2018-Jul-17 17:30N 26°06' W 080°07'2 4.1
2018-Jul-17 17:00N 26°04' W 080°08'0 0.0
2018-Jul-17 16:30N 26°04' W 080°08'0 0.0
2018-Jul-17 15:59N 26°04' W 080°08'0 0.0
2018-Jul-17 15:29N 26°04' W 080°08'0 0.0
2018-Jul-17 15:00N 26°04' W 080°08'0 0.0
2018-Jul-17 14:28N 26°04' W 080°08'0 0.0
2018-Jul-17 13:59N 26°04' W 080°08'0 0.0
2018-Jul-17 13:30N 26°04' W 080°08'0 0.0
2018-Jul-17 13:00N 26°04' W 080°08'0 0.0
2018-Jul-17 12:30N 26°04' W 080°08'0 0.0
2018-Jul-17 11:59N 26°04' W 080°08'0 0.0
2018-Jul-17 11:30N 26°04' W 080°08'0 0.2
2018-Jul-17 11:00N 26°04' W 080°08'3 5.9
2018-Jul-17 10:30N 26°06' W 080°05'5 9.8
2018-Jul-17 10:00N 26°04' W 080°00'5 9.7
2018-Jul-17 09:30N 26°02' W 079°55'5 9.2
2018-Jul-17 09:00N 25°60' W 079°51'5 9.1
2018-Jul-17 08:30N 25°58' W 079°46'5 9.0
2018-Jul-17 08:00N 25°57' W 079°41'5 0.2
2018-Jul-15 23:46N 26°00' W 079°45'2 8.0
2018-Jul-15 23:30N 26°01' W 079°47'4 7.6
2018-Jul-15 23:00N 26°02' W 079°51'4 8.7
2018-Jul-15 22:30N 26°03' W 079°56'4 8.7
2018-Jul-15 22:00N 26°04' W 080°01'5 9.8
2018-Jul-15 21:30N 26°06' W 080°06'3 5.0
2018-Jul-15 21:00N 26°04' W 080°08'0 0.0
2018-Jul-15 20:30N 26°04' W 080°08'0 0.0
2018-Jul-15 20:00N 26°04' W 080°08'0 0.0
2018-Jul-15 19:30N 26°04' W 080°08'0 0.0
2018-Jul-15 19:00N 26°04' W 080°08'0 0.0
2018-Jul-15 18:30N 26°04' W 080°08'0 0.0
2018-Jul-15 18:00N 26°04' W 080°08'0 0.0
2018-Jul-15 17:30N 26°04' W 080°08'0 0.0
2018-Jul-15 16:59N 26°04' W 080°08'0 0.0
2018-Jul-15 16:30N 26°04' W 080°08'0 0.0
2018-Jul-15 16:00N 26°04' W 080°08'0 0.0
2018-Jul-15 15:30N 26°04' W 080°08'0 0.0
2018-Jul-15 15:00N 26°04' W 080°08'0 0.0
2018-Jul-15 14:30N 26°04' W 080°08'0 0.0
2018-Jul-15 14:00N 26°04' W 080°08'0 0.0
2018-Jul-15 13:30N 26°04' W 080°08'0 0.0
2018-Jul-15 13:00N 26°04' W 080°08'0 0.0
2018-Jul-15 12:29N 26°04' W 080°08'0 0.0
2018-Jul-15 12:00N 26°04' W 080°08'0 0.1
2018-Jul-15 11:30N 26°04' W 080°08'3 5.9
2018-Jul-15 11:00N 26°06' W 080°05'5 9.3
2018-Jul-15 10:30N 26°03' W 080°01'4 7.6
2018-Jul-15 10:00N 26°02' W 079°57'4 7.4
2018-Jul-15 09:30N 25°60' W 079°53'4 7.6
2018-Jul-15 08:59N 25°58' W 079°50'4 7.5
2018-Jul-15 08:30N 25°56' W 079°46'4 7.5
2018-Jul-15 07:59N 25°54' W 079°43'8 0.2
2018-Jul-13 05:28N 26°01' W 079°40'4 9.3
2018-Jul-13 05:00N 26°01' W 079°45'5 9.3
2018-Jul-13 04:30N 26°01' W 079°50'4 8.8
2018-Jul-13 04:00N 26°01' W 079°54'4 8.7
2018-Jul-13 03:30N 26°02' W 079°59'5 9.3
2018-Jul-13 03:00N 26°05' W 080°04'3 5.8
2018-Jul-13 02:30N 26°05' W 080°07'1 2.7
2018-Jul-13 02:00N 26°04' W 080°08'0 0.0
2018-Jul-13 01:30N 26°04' W 080°08'0 0.0
2018-Jul-13 01:00N 26°04' W 080°08'0 0.0
2018-Jul-13 00:30N 26°04' W 080°08'0 0.0
2018-Jul-13 00:00N 26°04' W 080°08'0 0.0
2018-Jul-12 23:30N 26°04' W 080°08'0 0.0
2018-Jul-12 23:00N 26°04' W 080°08'0 0.0
2018-Jul-12 22:31N 26°04' W 080°08'0 0.0
2018-Jul-12 22:00N 26°04' W 080°08'0 0.0
2018-Jul-12 21:30N 26°04' W 080°08'0 0.0
2018-Jul-12 21:00N 26°04' W 080°08'0 0.0
2018-Jul-12 20:30N 26°04' W 080°08'0 0.0
2018-Jul-12 20:00N 26°04' W 080°08'0 0.0
2018-Jul-12 19:30N 26°04' W 080°08'0 0.0
2018-Jul-12 19:00N 26°04' W 080°08'0 0.0
2018-Jul-12 18:30N 26°04' W 080°08'1 1.9
2018-Jul-12 18:00N 26°04' W 080°07'3 5.8
2018-Jul-12 17:30N 26°05' W 080°04'510.6
2018-Jul-12 17:01N 26°03' W 079°58'510.8
2018-Jul-12 16:31N 26°01' W 079°53'611.5
2018-Jul-12 16:00N 25°58' W 079°47'510.6
2018-Jul-12 15:30N 25°56' W 079°42'  

Dump ship's entire track history